KOKK/OKK METAR and TAF weather

Enter ICAO airport designator
Station Type Date Time Source
KOKK METAR 2019/08/24 17:56 UTC NOAA

KOKK 241756Z AUTO 06011KT 10SM CLR 22/11 A3025 RMK AO2 SLP242 T02220111 10222 20133 58007


Station Type Date Time Source
KOKK Decoded METAR 2019/08/24 17:56 UTC NOAA

Station name not available
Aug 24, 2019 - 01:56 PM EDT / 2019.08.24 1756 UTC
Wind: from the ENE (060 degrees) at 13 MPH (11 KT):0
Visibility: 10 mile(s):0
Sky conditions: clear
Temperature: 72.0 F (22.2 C)
Dew Point: 52.0 F (11.1 C)
Relative Humidity: 49%
Pressure (altimeter): 30.25 in. Hg (1024 hPa)
Pressure tendency: 0.02 inches (0.7 hPa) lower than three hours ago
ob: KOKK 241756Z AUTO 06011KT 10SM CLR 22/11 A3025 RMK AO2 SLP242 T02220111 10222 20133 58007
cycle: 18

Station Type Date Time Source
KOKK TAF UTC NOAA

Error!

Example: see airport list